createdAt,value
2022-12-13T00:00:09.419Z,0.80
2022-12-13T00:02:43.042Z,0.70
2022-12-13T00:05:15.793Z,0.60
2022-12-13T00:07:44.585Z,0.80
2022-12-13T00:10:13.399Z,0.60
2022-12-13T00:12:43.659Z,0.60
2022-12-13T00:15:16.922Z,0.77
2022-12-13T00:17:59.210Z,0.60
2022-12-13T00:20:29.353Z,0.60
2022-12-13T00:22:57.828Z,0.75
2022-12-13T00:25:35.258Z,0.80
2022-12-13T00:28:05.555Z,0.70
2022-12-13T00:30:33.742Z,0.70
2022-12-13T00:33:03.919Z,0.73
2022-12-13T00:35:32.603Z,0.73
2022-12-13T00:38:00.679Z,0.80
2022-12-13T00:40:29.503Z,0.57
2022-12-13T00:43:01.951Z,0.90
2022-12-13T00:45:30.990Z,0.82
2022-12-13T00:47:58.751Z,0.63
2022-12-13T00:50:31.101Z,0.60
2022-12-13T00:53:00.564Z,0.90
2022-12-13T00:55:29.337Z,0.73
2022-12-13T00:57:58.358Z,0.68
2022-12-13T01:00:29.109Z,0.80
2022-12-13T01:02:56.875Z,0.80
2022-12-13T01:06:04.109Z,1.00
2022-12-13T01:08:19.181Z,0.73
2022-12-13T01:10:48.142Z,0.80
2022-12-13T01:13:17.616Z,0.77
2022-12-13T01:15:46.670Z,0.73
2022-12-13T01:18:18.494Z,0.75
2022-12-13T01:21:07.469Z,0.85
2022-12-13T01:23:35.591Z,0.82
2022-12-13T01:26:10.841Z,0.80
2022-12-13T01:28:39.245Z,0.75
2022-12-13T01:31:11.387Z,0.82
2022-12-13T01:33:39.972Z,0.80
2022-12-13T01:36:13.084Z,0.75
2022-12-13T01:38:44.481Z,0.77
2022-12-13T01:41:27.297Z,0.82
2022-12-13T01:44:01.491Z,0.70
2022-12-13T01:49:05.709Z,0.80
2022-12-13T01:51:56.654Z,1.20
2022-12-13T01:54:33.999Z,1.08
2022-12-13T01:57:06.844Z,0.90
2022-12-13T01:59:37.113Z,0.88
2022-12-13T02:02:05.880Z,0.98
2022-12-13T02:04:56.177Z,0.88
2022-12-13T02:07:32.170Z,0.70
2022-12-13T02:10:04.035Z,1.05
2022-12-13T02:12:35.355Z,1.00
2022-12-13T02:15:12.879Z,0.90
2022-12-13T02:17:45.917Z,1.00
2022-12-13T02:20:34.603Z,0.90
2022-12-13T02:23:26.596Z,0.90
2022-12-13T02:26:25.151Z,0.80
2022-12-13T02:29:30.760Z,0.90
2022-12-13T02:32:14.438Z,0.70
2022-12-13T02:34:50.775Z,1.00
2022-12-13T02:37:31.372Z,1.10
2022-12-13T02:40:06.755Z,0.77
2022-12-13T02:42:42.158Z,1.00
2022-12-13T02:45:20.968Z,0.80
2022-12-13T02:47:53.176Z,0.88
2022-12-13T02:50:23.784Z,1.23
2022-12-13T02:52:52.793Z,1.15
2022-12-13T02:55:23.927Z,1.08
2022-12-13T03:00:49.649Z,1.10
2022-12-13T03:03:48.412Z,1.17
2022-12-13T03:06:41.143Z,1.30
2022-12-13T03:09:27.001Z,1.30
2022-12-13T03:12:31.962Z,1.05
2022-12-13T03:15:35.162Z,1.75
2022-12-13T03:18:18.145Z,1.77
2022-12-13T03:20:55.236Z,1.63
2022-12-13T03:23:23.940Z,1.50
2022-12-13T03:25:57.379Z,1.40
2022-12-13T03:30:52.951Z,1.30
2022-12-13T03:33:20.623Z,1.23
2022-12-13T03:35:48.480Z,1.50
2022-12-13T03:38:21.903Z,1.67
2022-12-13T03:40:58.513Z,1.63
2022-12-13T03:43:26.634Z,1.45
2022-12-13T03:45:55.183Z,1.80
2022-12-13T03:48:23.775Z,1.45
2022-12-13T03:50:53.199Z,1.33
2022-12-13T03:53:32.557Z,1.40
2022-12-13T03:56:06.835Z,1.48
2022-12-13T03:58:37.627Z,1.60
2022-12-13T04:01:10.909Z,1.45
2022-12-13T04:03:41.895Z,1.60
2022-12-13T04:06:10.910Z,1.38
2022-12-13T04:08:39.956Z,1.48
2022-12-13T04:11:26.834Z,1.30
2022-12-13T04:13:55.343Z,1.42
2022-12-13T04:16:24.277Z,1.33
2022-12-13T04:18:52.300Z,1.48
2022-12-13T04:21:20.039Z,1.58
2022-12-13T04:23:47.793Z,1.52
2022-12-13T04:26:15.654Z,1.63
2022-12-13T04:28:43.244Z,2.30
2022-12-13T04:31:10.955Z,1.55
2022-12-13T04:33:38.651Z,1.85
2022-12-13T04:36:06.697Z,1.65
2022-12-13T04:38:34.305Z,1.98
2022-12-13T04:41:13.865Z,1.67
2022-12-13T04:43:41.570Z,1.90
2022-12-13T04:46:09.286Z,2.20
2022-12-13T04:48:37.032Z,2.10
2022-12-13T04:51:04.655Z,2.10
2022-12-13T04:53:32.549Z,1.65
2022-12-13T04:56:03.211Z,1.85
2022-12-13T04:58:31.571Z,1.63
2022-12-13T05:00:59.353Z,1.90
2022-12-13T05:03:29.036Z,2.03
2022-12-13T05:05:57.204Z,1.98
2022-12-13T05:08:24.926Z,2.17
2022-12-13T05:10:54.498Z,2.00
2022-12-13T05:13:22.070Z,1.70
2022-12-13T05:15:56.707Z,2.10
2022-12-13T05:18:24.531Z,2.25
2022-12-13T05:20:52.354Z,1.90
2022-12-13T05:23:22.189Z,1.90
2022-12-13T05:25:51.667Z,2.00
2022-12-13T05:28:28.358Z,1.90
2022-12-13T05:30:59.663Z,2.00
2022-12-13T05:33:27.409Z,1.90
2022-12-13T05:35:59.367Z,2.00
2022-12-13T05:38:29.647Z,2.45
2022-12-13T05:40:57.437Z,1.90
2022-12-13T05:43:42.179Z,1.83
2022-12-13T05:46:12.849Z,1.70
2022-12-13T05:48:41.450Z,1.80
2022-12-13T05:51:11.933Z,1.50
2022-12-13T05:53:42.114Z,1.60
2022-12-13T05:56:11.688Z,1.80
2022-12-13T05:58:40.810Z,1.52
2022-12-13T06:01:11.399Z,1.73
2022-12-13T06:03:40.257Z,1.80
2022-12-13T06:06:09.776Z,2.13
2022-12-13T06:08:37.762Z,2.40
2022-12-13T06:11:10.970Z,2.45
2022-12-13T06:13:43.263Z,2.50
2022-12-13T06:16:21.773Z,2.45
2022-12-13T06:19:02.739Z,2.50
2022-12-13T06:21:41.769Z,2.65
2022-12-13T06:24:22.400Z,2.28
2022-12-13T06:26:51.191Z,2.20
2022-12-13T06:29:23.199Z,2.10
2022-12-13T06:32:02.293Z,2.20
2022-12-13T06:34:36.135Z,2.35
2022-12-13T06:37:11.279Z,2.30
2022-12-13T06:39:39.274Z,2.00
2022-12-13T06:42:11.104Z,1.92
2022-12-13T06:44:38.765Z,2.05
2022-12-13T06:47:11.808Z,1.90
2022-12-13T06:49:44.233Z,2.20
2022-12-13T06:52:14.542Z,2.10
2022-12-13T06:54:43.412Z,2.22
2022-12-13T06:57:14.593Z,2.40
2022-12-13T06:59:42.992Z,2.35
2022-12-13T07:02:24.424Z,2.60
2022-12-13T07:04:53.832Z,2.25
2022-12-13T07:07:21.891Z,2.20
2022-12-13T07:09:49.576Z,2.63
2022-12-13T07:12:18.966Z,2.63
2022-12-13T07:14:46.575Z,2.92
2022-12-13T07:17:32.640Z,3.10
2022-12-13T07:20:05.025Z,2.88
2022-12-13T07:22:35.002Z,2.90
2022-12-13T07:25:05.538Z,2.80
2022-12-13T07:27:34.405Z,2.88
2022-12-13T07:30:02.468Z,2.50
2022-12-13T07:32:31.587Z,2.42
2022-12-13T07:34:59.289Z,2.50
2022-12-13T07:37:29.342Z,3.10
2022-12-13T07:40:04.019Z,2.63
2022-12-13T07:42:32.650Z,2.25
2022-12-13T07:45:00.747Z,2.00
2022-12-13T07:47:32.479Z,1.75
2022-12-13T07:50:01.662Z,1.80
2022-12-13T07:52:31.425Z,2.00
2022-12-13T07:54:59.237Z,1.90
2022-12-13T07:57:27.429Z,1.73
2022-12-13T07:59:55.108Z,1.90
2022-12-13T08:02:22.926Z,1.70
2022-12-13T08:04:54.627Z,1.85
2022-12-13T08:07:23.159Z,1.88
2022-12-13T08:09:53.011Z,1.80
2022-12-13T08:12:22.439Z,2.30
2022-12-13T08:14:53.326Z,2.20
2022-12-13T08:17:21.458Z,1.90
2022-12-13T08:19:49.201Z,2.28
2022-12-13T08:22:24.196Z,2.00
2022-12-13T08:24:52.359Z,2.20
2022-12-13T08:27:20.082Z,2.05
2022-12-13T08:29:49.364Z,2.38
2022-12-13T08:32:17.562Z,2.25
2022-12-13T08:34:46.128Z,2.17
2022-12-13T08:37:14.252Z,2.22
2022-12-13T08:39:42.125Z,2.28
2022-12-13T08:42:18.831Z,2.40
2022-12-13T08:44:52.972Z,1.83
2022-12-13T08:47:25.536Z,2.03
2022-12-13T08:50:04.558Z,1.80
2022-12-13T08:52:40.499Z,1.63
2022-12-13T08:55:11.432Z,1.88
2022-12-13T08:57:41.008Z,2.33
2022-12-13T09:00:12.591Z,2.20
2022-12-13T09:02:40.440Z,2.25
2022-12-13T09:05:09.934Z,2.78
2022-12-13T09:07:41.391Z,2.53
2022-12-13T09:10:27.082Z,2.28
2022-12-13T09:13:02.464Z,2.50
2022-12-13T09:15:46.139Z,2.65
2022-12-13T09:18:15.163Z,2.50
2022-12-13T09:20:52.439Z,2.00
2022-12-13T09:23:24.077Z,2.70
2022-12-13T09:25:56.597Z,2.55
2022-12-13T09:28:37.304Z,2.33
2022-12-13T09:31:14.568Z,2.20
2022-12-13T09:33:43.279Z,2.17
2022-12-13T09:36:17.791Z,2.70
2022-12-13T09:38:46.117Z,2.65
2022-12-13T09:41:20.461Z,2.67
2022-12-13T09:44:01.372Z,2.20
2022-12-13T09:46:44.190Z,2.30
2022-12-13T09:49:23.618Z,2.08
2022-12-13T09:52:11.797Z,2.40
2022-12-13T09:54:48.729Z,1.95
2022-12-13T09:57:35.023Z,2.58
2022-12-13T10:00:07.473Z,2.45
2022-12-13T10:02:52.205Z,2.30
2022-12-13T10:05:34.136Z,2.35
2022-12-13T10:08:21.207Z,2.45
2022-12-13T10:10:51.697Z,2.10
2022-12-13T10:13:26.030Z,2.30
2022-12-13T10:16:08.555Z,2.08
2022-12-13T10:18:39.449Z,2.23
2022-12-13T10:21:36.625Z,2.17
2022-12-13T10:24:31.450Z,2.50
2022-12-13T10:27:15.895Z,2.40
2022-12-13T10:30:13.131Z,2.33
2022-12-13T10:32:56.092Z,2.70
2022-12-13T10:35:28.580Z,2.67
2022-12-13T10:37:58.597Z,2.40
2022-12-13T10:40:33.435Z,2.30
2022-12-13T10:43:15.673Z,2.72
2022-12-13T10:45:59.611Z,2.42
2022-12-13T10:48:50.304Z,2.15
2022-12-13T10:51:21.177Z,2.17
2022-12-13T10:53:50.230Z,2.22
2022-12-13T10:56:23.395Z,2.00
2022-12-13T10:59:23.378Z,2.35
2022-12-13T11:01:51.121Z,2.50
2022-12-13T11:04:29.616Z,2.80
2022-12-13T11:07:00.622Z,2.67
2022-12-13T11:09:39.208Z,3.38
2022-12-13T11:12:21.414Z,3.60
2022-12-13T11:15:01.053Z,3.47
2022-12-13T11:17:31.776Z,3.90
2022-12-13T11:20:04.612Z,3.90
2022-12-13T11:22:38.295Z,4.07
2022-12-13T11:25:19.998Z,3.97
2022-12-13T11:28:37.570Z,4.45
2022-12-13T11:31:28.108Z,2.97
2022-12-13T11:33:58.437Z,2.22
2022-12-13T11:36:58.385Z,2.60
2022-12-13T11:39:35.833Z,2.70
2022-12-13T11:42:12.397Z,3.00
2022-12-13T11:45:04.345Z,3.72
2022-12-13T11:47:40.941Z,4.32
2022-12-13T11:50:32.699Z,4.78
2022-12-13T11:55:44.893Z,4.22
2022-12-13T11:59:10.130Z,4.88
2022-12-13T12:01:53.816Z,4.68
2022-12-13T12:04:32.629Z,4.97
2022-12-13T12:10:36.821Z,4.22
2022-12-13T12:13:29.042Z,3.60
2022-12-13T12:16:15.153Z,3.27
2022-12-13T12:18:42.634Z,3.50
2022-12-13T12:22:12.049Z,3.95
2022-12-13T12:24:53.927Z,3.65
2022-12-13T12:27:31.334Z,3.63
2022-12-13T12:30:09.478Z,4.10
2022-12-13T12:33:00.327Z,3.40
2022-12-13T12:35:49.647Z,4.30
2022-12-13T12:38:35.815Z,4.65
2022-12-13T12:41:32.374Z,4.45
2022-12-13T12:44:20.983Z,5.70
2022-12-13T12:47:08.770Z,5.65
2022-12-13T12:49:47.046Z,5.97
2022-12-13T12:52:46.228Z,5.97
2022-12-13T12:55:41.941Z,5.22
2022-12-13T12:58:31.470Z,5.68
2022-12-13T13:01:25.373Z,6.25
2022-12-13T13:04:01.527Z,5.75
2022-12-13T13:06:41.422Z,6.18
2022-12-13T13:09:11.905Z,6.22
2022-12-13T13:11:43.027Z,5.95
2022-12-13T13:14:26.918Z,5.78
2022-12-13T13:16:56.101Z,6.10
2022-12-13T13:19:32.842Z,7.22
2022-12-13T13:22:01.897Z,4.65
2022-12-13T13:24:33.100Z,4.25
2022-12-13T13:27:09.907Z,4.90
2022-12-13T13:29:43.873Z,4.00
2022-12-13T13:32:28.062Z,3.95
2022-12-13T13:35:29.438Z,4.70
2022-12-13T13:37:59.629Z,5.43
2022-12-13T13:40:39.428Z,4.80
2022-12-13T13:43:06.977Z,3.72
2022-12-13T13:45:51.226Z,5.47
2022-12-13T13:48:37.309Z,6.05
2022-12-13T13:51:13.840Z,4.82
2022-12-13T13:54:23.166Z,5.60
2022-12-13T13:58:07.559Z,5.32
2022-12-13T14:00:39.084Z,5.87
2022-12-13T14:03:35.079Z,6.28
2022-12-13T14:06:24.615Z,5.97
2022-12-13T14:09:27.293Z,5.10
2022-12-13T14:12:15.734Z,5.10
2022-12-13T14:15:24.074Z,5.38
2022-12-13T14:18:27.068Z,4.93
2022-12-13T14:21:15.936Z,5.40
2022-12-13T14:24:18.289Z,5.80
2022-12-13T14:26:51.537Z,5.70
2022-12-13T14:29:31.946Z,6.03
2022-12-13T14:32:00.078Z,7.35
2022-12-13T14:34:33.289Z,6.82
2022-12-13T14:37:06.725Z,6.43
2022-12-13T14:39:39.142Z,4.75
2022-12-13T14:42:30.620Z,6.38
2022-12-13T14:45:25.557Z,5.72
2022-12-13T14:47:55.073Z,6.43
2022-12-13T14:50:26.136Z,5.60
2022-12-13T14:52:56.509Z,6.07
2022-12-13T14:55:36.739Z,6.97
2022-12-13T14:58:18.381Z,6.07
2022-12-13T15:00:47.140Z,7.10
2022-12-13T15:03:28.694Z,7.68
2022-12-13T15:06:01.050Z,7.70
2022-12-13T15:08:31.463Z,8.35
2022-12-13T15:11:08.085Z,6.70
2022-12-13T15:13:47.464Z,7.22
2022-12-13T15:16:35.444Z,7.45
2022-12-13T15:19:31.331Z,7.85
2022-12-13T15:22:13.621Z,8.30
2022-12-13T15:24:49.373Z,8.30
2022-12-13T15:27:24.720Z,8.55
2022-12-13T15:29:54.717Z,9.50
2022-12-13T15:32:23.610Z,9.80
2022-12-13T15:34:52.665Z,9.07
2022-12-13T15:37:33.469Z,7.97
2022-12-13T15:40:09.556Z,7.80
2022-12-13T15:42:39.492Z,7.57
2022-12-13T15:45:19.245Z,7.57
2022-12-13T15:47:48.223Z,7.00
2022-12-13T15:50:37.555Z,8.43
2022-12-13T15:53:29.149Z,9.10
2022-12-13T15:56:00.342Z,9.38
2022-12-13T15:58:36.821Z,8.90
2022-12-13T16:01:06.226Z,9.88
2022-12-13T16:03:47.483Z,10.48
2022-12-13T16:06:22.527Z,12.50
2022-12-13T16:09:03.213Z,11.20
2022-12-13T16:11:34.019Z,11.88
2022-12-13T16:14:49.409Z,11.57
2022-12-13T16:17:29.758Z,11.10
2022-12-13T16:20:07.681Z,10.30
2022-12-13T16:22:37.024Z,9.88
2022-12-13T16:25:04.836Z,10.35
2022-12-13T16:27:34.663Z,9.40
2022-12-13T16:30:02.361Z,8.68
2022-12-13T16:32:36.143Z,8.82
2022-12-13T16:35:17.948Z,8.95
2022-12-13T16:37:47.940Z,9.38
2022-12-13T16:40:31.357Z,9.38
2022-12-13T16:43:05.192Z,9.55
2022-12-13T16:45:44.587Z,9.55
2022-12-13T16:48:13.379Z,10.07
2022-12-13T16:50:46.470Z,11.13
2022-12-13T16:53:17.457Z,10.38
2022-12-13T16:55:58.015Z,9.07
2022-12-13T16:58:26.603Z,10.38
2022-12-13T17:00:58.879Z,9.30
2022-12-13T17:03:28.181Z,10.45
2022-12-13T17:05:58.675Z,10.48
2022-12-13T17:08:26.809Z,10.85
2022-12-13T17:10:57.846Z,11.02
2022-12-13T17:13:27.249Z,10.90
2022-12-13T17:15:59.797Z,11.88
2022-12-13T17:18:27.730Z,12.88
2022-12-13T17:20:58.366Z,12.93
2022-12-13T17:23:27.541Z,13.23
2022-12-13T17:25:57.839Z,13.10
2022-12-13T17:28:26.001Z,12.80
2022-12-13T17:30:55.009Z,14.70
2022-12-13T17:33:23.158Z,15.88
2022-12-13T17:35:51.183Z,13.43
2022-12-13T17:38:18.675Z,10.65
2022-12-13T17:40:54.392Z,9.63
2022-12-13T17:43:33.089Z,9.93
2022-12-13T17:46:05.377Z,10.52
2022-12-13T17:48:39.791Z,10.60
2022-12-13T17:51:09.581Z,10.07
2022-12-13T17:53:39.827Z,9.75
2022-12-13T17:56:09.778Z,10.50
2022-12-13T17:58:37.982Z,11.70
2022-12-13T18:01:16.932Z,11.45
2022-12-13T18:03:45.258Z,8.95
2022-12-13T18:06:12.894Z,7.50
2022-12-13T18:08:42.695Z,10.32
2022-12-13T18:13:59.518Z,12.15
2022-12-13T18:16:33.941Z,14.43
2022-12-13T18:19:06.632Z,14.40
2022-12-13T18:21:35.795Z,14.32
2022-12-13T18:24:03.921Z,13.50
2022-12-13T18:26:31.499Z,15.38
2022-12-13T18:28:59.005Z,14.43
2022-12-13T18:31:27.013Z,14.57
2022-12-13T18:33:55.143Z,14.50
2022-12-13T18:36:25.134Z,12.23
2022-12-13T18:38:53.825Z,12.65
2022-12-13T18:41:24.530Z,10.32
2022-12-13T18:44:03.264Z,8.38
2022-12-13T18:46:32.916Z,9.20
2022-12-13T18:49:01.398Z,7.97
2022-12-13T18:51:29.163Z,9.80
2022-12-13T18:53:56.929Z,10.82
2022-12-13T18:56:26.047Z,9.90
2022-12-13T18:58:55.250Z,10.63
2022-12-13T19:01:23.250Z,9.00
2022-12-13T19:03:51.577Z,9.77
2022-12-13T19:06:29.480Z,10.43
2022-12-13T19:08:59.092Z,8.73
2022-12-13T19:11:28.401Z,8.73
2022-12-13T19:13:56.287Z,7.68
2022-12-13T19:16:25.396Z,6.72
2022-12-13T19:18:53.310Z,6.30
2022-12-13T19:21:22.332Z,6.90
2022-12-13T19:23:56.400Z,8.25
2022-12-13T19:26:27.771Z,7.20
2022-12-13T19:28:57.195Z,6.63
2022-12-13T19:31:31.023Z,6.30
2022-12-13T19:34:01.882Z,6.68
2022-12-13T19:36:31.040Z,6.63
2022-12-13T19:38:59.169Z,6.68
2022-12-13T19:41:27.395Z,6.47
2022-12-13T19:43:54.943Z,6.93
2022-12-13T19:46:22.582Z,7.03
2022-12-13T19:48:50.531Z,6.47
2022-12-13T19:51:18.385Z,7.35
2022-12-13T19:53:46.533Z,8.80
2022-12-13T19:56:17.900Z,13.07
2022-12-13T19:58:47.054Z,8.55
2022-12-13T20:01:15.429Z,8.88
2022-12-13T20:03:45.924Z,7.80
2022-12-13T20:06:17.153Z,8.30
2022-12-13T20:08:45.581Z,7.05
2022-12-13T20:11:16.364Z,8.07
2022-12-13T20:13:43.938Z,7.80
2022-12-13T20:16:23.362Z,8.73
2022-12-13T20:18:59.375Z,9.38
2022-12-13T20:21:28.023Z,9.63
2022-12-13T20:23:55.637Z,9.30
2022-12-13T20:26:25.380Z,11.20
2022-12-13T20:28:53.114Z,11.27
2022-12-13T20:31:24.309Z,11.15
2022-12-13T20:33:57.561Z,10.32
2022-12-13T20:36:28.038Z,10.43
2022-12-13T20:38:57.350Z,9.52
2022-12-13T20:41:27.003Z,10.82
2022-12-13T20:43:56.024Z,10.95
2022-12-13T20:46:24.944Z,11.65
2022-12-13T20:48:53.220Z,10.52
2022-12-13T20:51:22.949Z,12.05
2022-12-13T20:53:52.528Z,11.68
2022-12-13T20:56:25.758Z,12.27
2022-12-13T20:58:53.505Z,12.10
2022-12-13T21:01:30.848Z,10.80
2022-12-13T21:04:00.726Z,10.32
2022-12-13T21:06:30.157Z,8.32
2022-12-13T21:09:08.272Z,8.68
2022-12-13T21:11:37.685Z,5.57
2022-12-13T21:14:21.458Z,5.75
2022-12-13T21:16:52.170Z,5.63
2022-12-13T21:19:27.657Z,5.40
2022-12-13T21:21:56.920Z,5.95
2022-12-13T21:24:26.233Z,6.68
2022-12-13T21:26:56.750Z,4.40
2022-12-13T21:29:24.835Z,7.55
2022-12-13T21:31:53.666Z,7.35
2022-12-13T21:34:22.565Z,7.78
2022-12-13T21:36:55.018Z,5.45
2022-12-13T21:39:28.165Z,5.40
2022-12-13T21:41:56.925Z,5.50
2022-12-13T21:44:24.508Z,5.10
2022-12-13T21:47:11.862Z,5.18
2022-12-13T21:49:40.150Z,5.40
2022-12-13T21:52:07.669Z,5.18
2022-12-13T21:54:35.115Z,4.05
2022-12-13T21:57:20.853Z,4.72
2022-12-13T21:59:48.320Z,3.63
2022-12-13T22:02:18.850Z,5.07
2022-12-13T22:04:50.742Z,6.13
2022-12-13T22:07:19.585Z,9.82
2022-12-13T22:09:48.400Z,10.73
2022-12-13T22:12:29.952Z,13.00
2022-12-13T22:14:57.467Z,11.30
2022-12-13T22:17:33.027Z,13.65
2022-12-13T22:20:03.221Z,13.52
2022-12-13T22:22:32.030Z,8.13
2022-12-13T22:24:59.608Z,14.02
2022-12-13T22:27:27.101Z,7.82
2022-12-13T22:29:57.406Z,12.30
2022-12-13T22:32:27.762Z,13.68
2022-12-13T22:34:55.843Z,11.55
2022-12-13T22:37:23.880Z,12.52
2022-12-13T22:39:51.579Z,12.27
2022-12-13T22:42:19.976Z,10.75
2022-12-13T22:44:48.020Z,9.30
2022-12-13T22:47:15.622Z,7.47
2022-12-13T22:49:43.106Z,7.75
2022-12-13T22:52:10.639Z,5.35
2022-12-13T22:54:38.153Z,5.65
2022-12-13T22:57:07.458Z,2.80
2022-12-13T22:59:34.981Z,2.10
2022-12-13T23:02:04.235Z,2.97
2022-12-13T23:04:34.682Z,2.70
2022-12-13T23:07:02.201Z,2.80
2022-12-13T23:09:30.986Z,2.40
2022-12-13T23:12:16.784Z,1.90
2022-12-13T23:14:44.208Z,3.03
2022-12-13T23:17:11.809Z,3.45
2022-12-13T23:19:50.944Z,2.20
2022-12-13T23:22:25.967Z,2.30
2022-12-13T23:24:53.987Z,3.90
2022-12-13T23:27:23.518Z,4.43
2022-12-13T23:29:51.055Z,3.33
2022-12-13T23:32:18.559Z,4.53
2022-12-13T23:34:46.035Z,4.13
2022-12-13T23:37:13.997Z,6.20
2022-12-13T23:39:41.878Z,6.32
2022-12-13T23:42:09.506Z,5.47
2022-12-13T23:44:37.028Z,5.10
2022-12-13T23:47:04.542Z,5.53
2022-12-13T23:49:32.639Z,3.25
2022-12-13T23:52:00.102Z,4.35
2022-12-13T23:54:27.593Z,5.10
2022-12-13T23:56:55.118Z,7.28
2022-12-13T23:59:26.161Z,5.97
